sensor_id;sensor_type;location;lat;lon;timestamp;P1;durP1;ratioP1;P2;durP2;ratioP2
23119;SDS011;11729;50.836;4.330;2023-06-22T00:00:46;9.23;;;6.78;;
23119;SDS011;11729;50.836;4.330;2023-06-22T00:03:13;7.55;;;6.78;;
23119;SDS011;11729;50.836;4.330;2023-06-22T00:05:38;7.80;;;7.10;;
23119;SDS011;11729;50.836;4.330;2023-06-22T00:08:04;7.43;;;6.60;;
23119;SDS011;11729;50.836;4.330;2023-06-22T00:10:30;8.27;;;6.38;;
23119;SDS011;11729;50.836;4.330;2023-06-22T00:12:56;7.35;;;6.45;;
23119;SDS011;11729;50.836;4.330;2023-06-22T00:15:23;11.70;;;6.80;;
23119;SDS011;11729;50.836;4.330;2023-06-22T00:17:49;7.82;;;7.05;;
23119;SDS011;11729;50.836;4.330;2023-06-22T00:20:15;9.35;;;7.15;;
23119;SDS011;11729;50.836;4.330;2023-06-22T00:22:41;10.77;;;7.47;;
23119;SDS011;11729;50.836;4.330;2023-06-22T00:25:08;9.10;;;7.15;;
23119;SDS011;11729;50.836;4.330;2023-06-22T00:27:34;9.20;;;7.80;;
23119;SDS011;11729;50.836;4.330;2023-06-22T00:30:00;8.15;;;7.45;;
23119;SDS011;11729;50.836;4.330;2023-06-22T00:32:26;7.78;;;7.00;;
23119;SDS011;11729;50.836;4.330;2023-06-22T00:34:51;8.40;;;7.45;;
23119;SDS011;11729;50.836;4.330;2023-06-22T00:37:17;7.82;;;7.03;;
23119;SDS011;11729;50.836;4.330;2023-06-22T00:39:43;10.38;;;7.75;;
23119;SDS011;11729;50.836;4.330;2023-06-22T00:42:09;12.20;;;7.40;;
23119;SDS011;11729;50.836;4.330;2023-06-22T00:44:35;8.02;;;7.32;;
23119;SDS011;11729;50.836;4.330;2023-06-22T00:47:01;8.57;;;7.57;;
23119;SDS011;11729;50.836;4.330;2023-06-22T00:49:27;10.32;;;7.88;;
23119;SDS011;11729;50.836;4.330;2023-06-22T00:51:53;11.32;;;7.57;;
23119;SDS011;11729;50.836;4.330;2023-06-22T00:54:19;9.05;;;7.70;;
23119;SDS011;11729;50.836;4.330;2023-06-22T00:56:50;11.88;;;7.10;;
23119;SDS011;11729;50.836;4.330;2023-06-22T00:59:21;9.63;;;7.22;;
23119;SDS011;11729;50.836;4.330;2023-06-22T01:01:48;9.38;;;7.90;;
23119;SDS011;11729;50.836;4.330;2023-06-22T01:04:13;9.85;;;7.68;;
23119;SDS011;11729;50.836;4.330;2023-06-22T01:06:41;10.35;;;7.30;;
23119;SDS011;11729;50.836;4.330;2023-06-22T01:09:15;9.73;;;7.28;;
23119;SDS011;11729;50.836;4.330;2023-06-22T01:11:52;13.35;;;7.40;;
23119;SDS011;11729;50.836;4.330;2023-06-22T01:14:30;12.85;;;8.05;;
23119;SDS011;11729;50.836;4.330;2023-06-22T01:16:57;8.98;;;7.32;;
23119;SDS011;11729;50.836;4.330;2023-06-22T01:19:35;8.60;;;7.72;;
23119;SDS011;11729;50.836;4.330;2023-06-22T01:22:06;9.68;;;7.65;;
23119;SDS011;11729;50.836;4.330;2023-06-22T01:24:41;10.02;;;7.82;;
23119;SDS011;11729;50.836;4.330;2023-06-22T01:30:10;9.40;;;7.57;;
23119;SDS011;11729;50.836;4.330;2023-06-22T01:32:38;9.10;;;8.15;;
23119;SDS011;11729;50.836;4.330;2023-06-22T01:35:05;8.07;;;7.28;;
23119;SDS011;11729;50.836;4.330;2023-06-22T01:37:33;8.68;;;7.85;;
23119;SDS011;11729;50.836;4.330;2023-06-22T01:40:01;8.88;;;8.07;;
23119;SDS011;11729;50.836;4.330;2023-06-22T01:42:30;11.38;;;8.00;;
23119;SDS011;11729;50.836;4.330;2023-06-22T01:44:57;10.45;;;8.75;;
23119;SDS011;11729;50.836;4.330;2023-06-22T01:47:24;12.18;;;8.00;;
23119;SDS011;11729;50.836;4.330;2023-06-22T01:49:52;11.57;;;8.30;;
23119;SDS011;11729;50.836;4.330;2023-06-22T01:52:18;9.13;;;7.78;;
23119;SDS011;11729;50.836;4.330;2023-06-22T01:54:46;11.38;;;8.73;;
23119;SDS011;11729;50.836;4.330;2023-06-22T01:57:13;9.82;;;8.30;;
23119;SDS011;11729;50.836;4.330;2023-06-22T02:02:13;9.43;;;8.05;;
23119;SDS011;11729;50.836;4.330;2023-06-22T02:07:12;10.43;;;8.60;;
23119;SDS011;11729;50.836;4.330;2023-06-22T02:09:42;9.85;;;8.57;;
23119;SDS011;11729;50.836;4.330;2023-06-22T02:12:11;9.25;;;8.35;;
23119;SDS011;11729;50.836;4.330;2023-06-22T02:14:38;10.45;;;8.20;;
23119;SDS011;11729;50.836;4.330;2023-06-22T02:17:05;9.27;;;8.32;;
23119;SDS011;11729;50.836;4.330;2023-06-22T02:19:37;10.55;;;8.45;;
23119;SDS011;11729;50.836;4.330;2023-06-22T02:22:03;8.90;;;7.97;;
23119;SDS011;11729;50.836;4.330;2023-06-22T02:24:29;10.73;;;8.35;;
23119;SDS011;11729;50.836;4.330;2023-06-22T02:26:57;10.25;;;8.75;;
23119;SDS011;11729;50.836;4.330;2023-06-22T02:29:24;8.80;;;7.90;;
23119;SDS011;11729;50.836;4.330;2023-06-22T02:31:49;9.07;;;7.93;;
23119;SDS011;11729;50.836;4.330;2023-06-22T02:34:15;8.85;;;7.95;;
23119;SDS011;11729;50.836;4.330;2023-06-22T02:36:44;8.93;;;7.70;;
23119;SDS011;11729;50.836;4.330;2023-06-22T02:39:16;9.10;;;8.20;;
23119;SDS011;11729;50.836;4.330;2023-06-22T02:41:51;10.45;;;8.07;;
23119;SDS011;11729;50.836;4.330;2023-06-22T02:44:18;9.88;;;8.88;;
23119;SDS011;11729;50.836;4.330;2023-06-22T02:46:44;12.07;;;9.40;;
23119;SDS011;11729;50.836;4.330;2023-06-22T02:49:10;9.02;;;8.13;;
23119;SDS011;11729;50.836;4.330;2023-06-22T02:51:38;9.55;;;8.02;;
23119;SDS011;11729;50.836;4.330;2023-06-22T02:54:06;9.27;;;8.38;;
23119;SDS011;11729;50.836;4.330;2023-06-22T02:56:31;9.35;;;8.38;;
23119;SDS011;11729;50.836;4.330;2023-06-22T02:58:57;12.65;;;9.68;;
23119;SDS011;11729;50.836;4.330;2023-06-22T03:01:26;14.25;;;8.93;;
23119;SDS011;11729;50.836;4.330;2023-06-22T03:03:53;10.02;;;8.77;;
23119;SDS011;11729;50.836;4.330;2023-06-22T03:06:20;11.60;;;9.65;;
23119;SDS011;11729;50.836;4.330;2023-06-22T03:08:49;10.48;;;9.40;;
23119;SDS011;11729;50.836;4.330;2023-06-22T03:11:16;11.35;;;8.90;;
23119;SDS011;11729;50.836;4.330;2023-06-22T03:13:41;10.63;;;8.70;;
23119;SDS011;11729;50.836;4.330;2023-06-22T03:16:07;9.95;;;8.80;;
23119;SDS011;11729;50.836;4.330;2023-06-22T03:18:32;10.88;;;9.00;;
23119;SDS011;11729;50.836;4.330;2023-06-22T03:20:58;10.05;;;9.10;;
23119;SDS011;11729;50.836;4.330;2023-06-22T03:23:24;11.52;;;9.30;;
23119;SDS011;11729;50.836;4.330;2023-06-22T03:25:49;11.90;;;8.73;;
23119;SDS011;11729;50.836;4.330;2023-06-22T03:28:15;11.30;;;8.95;;
23119;SDS011;11729;50.836;4.330;2023-06-22T03:30:41;10.05;;;8.60;;
23119;SDS011;11729;50.836;4.330;2023-06-22T03:33:06;9.23;;;8.15;;
23119;SDS011;11729;50.836;4.330;2023-06-22T03:35:32;12.10;;;9.50;;
23119;SDS011;11729;50.836;4.330;2023-06-22T03:37:57;12.43;;;9.05;;
23119;SDS011;11729;50.836;4.330;2023-06-22T03:40:23;14.45;;;9.85;;
23119;SDS011;11729;50.836;4.330;2023-06-22T03:42:48;10.93;;;9.27;;
23119;SDS011;11729;50.836;4.330;2023-06-22T03:45:14;13.23;;;9.40;;
23119;SDS011;11729;50.836;4.330;2023-06-22T03:47:40;11.10;;;9.38;;
23119;SDS011;11729;50.836;4.330;2023-06-22T03:50:06;14.30;;;10.00;;
23119;SDS011;11729;50.836;4.330;2023-06-22T03:52:32;13.70;;;9.85;;
23119;SDS011;11729;50.836;4.330;2023-06-22T03:55:01;11.13;;;9.90;;
23119;SDS011;11729;50.836;4.330;2023-06-22T03:57:27;11.95;;;10.05;;
23119;SDS011;11729;50.836;4.330;2023-06-22T03:59:54;11.02;;;9.52;;
23119;SDS011;11729;50.836;4.330;2023-06-22T04:02:21;12.13;;;9.77;;
23119;SDS011;11729;50.836;4.330;2023-06-22T04:04:47;11.50;;;9.57;;
23119;SDS011;11729;50.836;4.330;2023-06-22T04:07:12;12.27;;;10.35;;
23119;SDS011;11729;50.836;4.330;2023-06-22T04:09:38;13.68;;;10.20;;
23119;SDS011;11729;50.836;4.330;2023-06-22T04:12:04;13.45;;;10.55;;
23119;SDS011;11729;50.836;4.330;2023-06-22T04:14:30;15.48;;;10.90;;
23119;SDS011;11729;50.836;4.330;2023-06-22T04:16:55;17.20;;;10.55;;
23119;SDS011;11729;50.836;4.330;2023-06-22T04:19:22;13.52;;;10.55;;
23119;SDS011;11729;50.836;4.330;2023-06-22T04:21:48;16.17;;;12.55;;
23119;SDS011;11729;50.836;4.330;2023-06-22T04:24:14;20.33;;;11.85;;
23119;SDS011;11729;50.836;4.330;2023-06-22T04:26:40;15.30;;;12.10;;
23119;SDS011;11729;50.836;4.330;2023-06-22T04:29:07;16.35;;;13.00;;
23119;SDS011;11729;50.836;4.330;2023-06-22T04:31:36;16.00;;;12.32;;
23119;SDS011;11729;50.836;4.330;2023-06-22T04:34:06;16.33;;;12.35;;
23119;SDS011;11729;50.836;4.330;2023-06-22T04:36:33;14.25;;;11.60;;
23119;SDS011;11729;50.836;4.330;2023-06-22T04:39:07;14.70;;;12.05;;
23119;SDS011;11729;50.836;4.330;2023-06-22T04:41:39;16.67;;;13.48;;
23119;SDS011;11729;50.836;4.330;2023-06-22T04:44:09;19.40;;;13.63;;
23119;SDS011;11729;50.836;4.330;2023-06-22T04:46:35;15.00;;;11.85;;
23119;SDS011;11729;50.836;4.330;2023-06-22T04:49:04;15.65;;;12.98;;
23119;SDS011;11729;50.836;4.330;2023-06-22T04:51:41;13.90;;;12.50;;
23119;SDS011;11729;50.836;4.330;2023-06-22T04:54:08;18.85;;;13.20;;
23119;SDS011;11729;50.836;4.330;2023-06-22T04:56:34;16.30;;;14.05;;
23119;SDS011;11729;50.836;4.330;2023-06-22T04:59:00;14.32;;;12.85;;
23119;SDS011;11729;50.836;4.330;2023-06-22T05:01:28;18.52;;;13.20;;
23119;SDS011;11729;50.836;4.330;2023-06-22T05:03:53;15.65;;;13.40;;
23119;SDS011;11729;50.836;4.330;2023-06-22T05:06:23;17.00;;;12.77;;
23119;SDS011;11729;50.836;4.330;2023-06-22T05:08:53;19.20;;;13.52;;
23119;SDS011;11729;50.836;4.330;2023-06-22T05:11:26;18.35;;;14.23;;
23119;SDS011;11729;50.836;4.330;2023-06-22T05:13:52;16.60;;;14.15;;
23119;SDS011;11729;50.836;4.330;2023-06-22T05:16:18;21.25;;;13.68;;
23119;SDS011;11729;50.836;4.330;2023-06-22T05:18:49;19.25;;;14.05;;
23119;SDS011;11729;50.836;4.330;2023-06-22T05:21:24;22.50;;;14.85;;
23119;SDS011;11729;50.836;4.330;2023-06-22T05:23:52;21.15;;;15.80;;
23119;SDS011;11729;50.836;4.330;2023-06-22T05:26:18;24.33;;;16.02;;
23119;SDS011;11729;50.836;4.330;2023-06-22T05:28:45;19.92;;;15.95;;
23119;SDS011;11729;50.836;4.330;2023-06-22T05:31:15;20.80;;;15.97;;
23119;SDS011;11729;50.836;4.330;2023-06-22T05:33:42;20.35;;;17.50;;
23119;SDS011;11729;50.836;4.330;2023-06-22T05:36:08;21.42;;;18.25;;
23119;SDS011;11729;50.836;4.330;2023-06-22T05:38:35;26.00;;;18.90;;
23119;SDS011;11729;50.836;4.330;2023-06-22T05:41:01;26.10;;;19.30;;
23119;SDS011;11729;50.836;4.330;2023-06-22T05:43:27;20.88;;;17.08;;
23119;SDS011;11729;50.836;4.330;2023-06-22T05:45:52;22.20;;;18.45;;
23119;SDS011;11729;50.836;4.330;2023-06-22T05:48:18;28.60;;;20.38;;
23119;SDS011;11729;50.836;4.330;2023-06-22T05:50:44;21.95;;;18.65;;
23119;SDS011;11729;50.836;4.330;2023-06-22T05:53:09;40.42;;;30.38;;
23119;SDS011;11729;50.836;4.330;2023-06-22T05:55:35;28.65;;;20.83;;
23119;SDS011;11729;50.836;4.330;2023-06-22T05:58:00;24.70;;;20.13;;
23119;SDS011;11729;50.836;4.330;2023-06-22T06:00:29;26.75;;;19.58;;
23119;SDS011;11729;50.836;4.330;2023-06-22T06:02:56;27.55;;;20.13;;
23119;SDS011;11729;50.836;4.330;2023-06-22T06:05:21;27.08;;;20.30;;
23119;SDS011;11729;50.836;4.330;2023-06-22T06:07:48;28.63;;;20.70;;
23119;SDS011;11729;50.836;4.330;2023-06-22T06:10:14;27.77;;;20.30;;
23119;SDS011;11729;50.836;4.330;2023-06-22T06:12:40;25.05;;;21.50;;
23119;SDS011;11729;50.836;4.330;2023-06-22T06:15:06;29.45;;;20.92;;
23119;SDS011;11729;50.836;4.330;2023-06-22T06:17:32;22.60;;;19.90;;
23119;SDS011;11729;50.836;4.330;2023-06-22T06:19:59;24.98;;;20.42;;
23119;SDS011;11729;50.836;4.330;2023-06-22T06:22:26;25.77;;;20.00;;
23119;SDS011;11729;50.836;4.330;2023-06-22T06:24:51;28.33;;;21.02;;
23119;SDS011;11729;50.836;4.330;2023-06-22T06:27:17;24.88;;;18.98;;
23119;SDS011;11729;50.836;4.330;2023-06-22T06:29:45;29.88;;;20.60;;
23119;SDS011;11729;50.836;4.330;2023-06-22T06:32:13;27.77;;;20.35;;
23119;SDS011;11729;50.836;4.330;2023-06-22T06:34:38;34.55;;;21.63;;
23119;SDS011;11729;50.836;4.330;2023-06-22T06:37:05;27.60;;;21.20;;
23119;SDS011;11729;50.836;4.330;2023-06-22T06:39:31;32.95;;;21.13;;
23119;SDS011;11729;50.836;4.330;2023-06-22T06:41:57;29.02;;;21.50;;
23119;SDS011;11729;50.836;4.330;2023-06-22T06:44:23;28.00;;;19.67;;
23119;SDS011;11729;50.836;4.330;2023-06-22T06:46:48;28.67;;;19.90;;
23119;SDS011;11729;50.836;4.330;2023-06-22T06:49:16;25.95;;;19.50;;
23119;SDS011;11729;50.836;4.330;2023-06-22T06:51:42;26.88;;;19.25;;
23119;SDS011;11729;50.836;4.330;2023-06-22T06:54:08;30.63;;;19.45;;
23119;SDS011;11729;50.836;4.330;2023-06-22T06:56:33;24.52;;;19.15;;
23119;SDS011;11729;50.836;4.330;2023-06-22T06:58:59;26.15;;;19.60;;
23119;SDS011;11729;50.836;4.330;2023-06-22T07:01:25;25.45;;;19.05;;
23119;SDS011;11729;50.836;4.330;2023-06-22T07:03:50;24.17;;;20.13;;
23119;SDS011;11729;50.836;4.330;2023-06-22T07:06:16;22.75;;;18.35;;
23119;SDS011;11729;50.836;4.330;2023-06-22T07:08:41;27.88;;;18.85;;
23119;SDS011;11729;50.836;4.330;2023-06-22T07:11:08;26.77;;;18.60;;
23119;SDS011;11729;50.836;4.330;2023-06-22T07:13:33;25.58;;;19.38;;
23119;SDS011;11729;50.836;4.330;2023-06-22T07:15:59;29.05;;;20.08;;
23119;SDS011;11729;50.836;4.330;2023-06-22T07:18:25;26.45;;;19.00;;
23119;SDS011;11729;50.836;4.330;2023-06-22T07:20:51;28.48;;;20.08;;
23119;SDS011;11729;50.836;4.330;2023-06-22T07:23:17;24.98;;;19.73;;
23119;SDS011;11729;50.836;4.330;2023-06-22T07:25:42;31.02;;;18.88;;
23119;SDS011;11729;50.836;4.330;2023-06-22T07:28:08;21.52;;;18.95;;
23119;SDS011;11729;50.836;4.330;2023-06-22T07:30:34;27.80;;;18.40;;
23119;SDS011;11729;50.836;4.330;2023-06-22T07:33:00;29.30;;;18.95;;
23119;SDS011;11729;50.836;4.330;2023-06-22T07:35:33;29.85;;;18.55;;
23119;SDS011;11729;50.836;4.330;2023-06-22T07:37:58;31.50;;;19.27;;
23119;SDS011;11729;50.836;4.330;2023-06-22T07:40:24;22.83;;;18.30;;
23119;SDS011;11729;50.836;4.330;2023-06-22T07:42:50;28.05;;;19.25;;
23119;SDS011;11729;50.836;4.330;2023-06-22T07:45:18;24.55;;;18.55;;
23119;SDS011;11729;50.836;4.330;2023-06-22T07:47:44;26.30;;;18.85;;
23119;SDS011;11729;50.836;4.330;2023-06-22T07:50:09;25.98;;;18.67;;
23119;SDS011;11729;50.836;4.330;2023-06-22T07:52:35;23.35;;;18.23;;
23119;SDS011;11729;50.836;4.330;2023-06-22T07:55:01;23.70;;;18.45;;
23119;SDS011;11729;50.836;4.330;2023-06-22T07:57:27;21.98;;;16.98;;
23119;SDS011;11729;50.836;4.330;2023-06-22T08:00:03;23.90;;;17.45;;
23119;SDS011;11729;50.836;4.330;2023-06-22T08:05:07;19.50;;;16.85;;
23119;SDS011;11729;50.836;4.330;2023-06-22T08:07:34;19.73;;;17.23;;
23119;SDS011;11729;50.836;4.330;2023-06-22T08:10:03;27.23;;;17.70;;
23119;SDS011;11729;50.836;4.330;2023-06-22T08:14:55;22.10;;;16.77;;
23119;SDS011;11729;50.836;4.330;2023-06-22T08:17:22;18.35;;;15.82;;
23119;SDS011;11729;50.836;4.330;2023-06-22T08:19:48;20.10;;;16.67;;
23119;SDS011;11729;50.836;4.330;2023-06-22T08:22:14;22.45;;;17.05;;
23119;SDS011;11729;50.836;4.330;2023-06-22T08:24:41;20.77;;;16.92;;
23119;SDS011;11729;50.836;4.330;2023-06-22T08:27:06;21.42;;;17.65;;
23119;SDS011;11729;50.836;4.330;2023-06-22T08:29:34;23.55;;;17.30;;
23119;SDS011;11729;50.836;4.330;2023-06-22T08:32:00;19.52;;;17.15;;
23119;SDS011;11729;50.836;4.330;2023-06-22T08:34:25;20.17;;;17.98;;
23119;SDS011;11729;50.836;4.330;2023-06-22T08:36:52;20.17;;;18.02;;
23119;SDS011;11729;50.836;4.330;2023-06-22T08:39:19;22.20;;;18.02;;
23119;SDS011;11729;50.836;4.330;2023-06-22T08:41:45;24.23;;;18.90;;
23119;SDS011;11729;50.836;4.330;2023-06-22T08:44:12;29.50;;;17.88;;
23119;SDS011;11729;50.836;4.330;2023-06-22T08:46:37;25.20;;;18.98;;
23119;SDS011;11729;50.836;4.330;2023-06-22T08:49:05;23.08;;;18.42;;
23119;SDS011;11729;50.836;4.330;2023-06-22T08:51:31;28.15;;;20.33;;
23119;SDS011;11729;50.836;4.330;2023-06-22T08:53:57;24.48;;;19.75;;
23119;SDS011;11729;50.836;4.330;2023-06-22T08:56:23;24.60;;;19.98;;
23119;SDS011;11729;50.836;4.330;2023-06-22T08:58:48;27.45;;;19.60;;
23119;SDS011;11729;50.836;4.330;2023-06-22T09:01:14;28.42;;;19.60;;
23119;SDS011;11729;50.836;4.330;2023-06-22T09:03:40;26.20;;;20.02;;
23119;SDS011;11729;50.836;4.330;2023-06-22T09:06:06;23.17;;;19.77;;
23119;SDS011;11729;50.836;4.330;2023-06-22T09:08:34;21.25;;;18.98;;
23119;SDS011;11729;50.836;4.330;2023-06-22T09:11:00;23.25;;;19.25;;
23119;SDS011;11729;50.836;4.330;2023-06-22T09:13:25;22.67;;;17.88;;
23119;SDS011;11729;50.836;4.330;2023-06-22T09:15:51;26.30;;;19.15;;
23119;SDS011;11729;50.836;4.330;2023-06-22T09:18:17;22.02;;;18.25;;
23119;SDS011;11729;50.836;4.330;2023-06-22T09:20:43;26.40;;;19.02;;
23119;SDS011;11729;50.836;4.330;2023-06-22T09:23:10;31.17;;;18.97;;
23119;SDS011;11729;50.836;4.330;2023-06-22T09:25:35;27.17;;;17.85;;
23119;SDS011;11729;50.836;4.330;2023-06-22T09:28:01;28.27;;;18.50;;
23119;SDS011;11729;50.836;4.330;2023-06-22T09:30:27;29.02;;;19.08;;
23119;SDS011;11729;50.836;4.330;2023-06-22T09:32:52;25.60;;;18.88;;
23119;SDS011;11729;50.836;4.330;2023-06-22T09:35:25;28.85;;;19.90;;
23119;SDS011;11729;50.836;4.330;2023-06-22T09:37:50;29.67;;;20.35;;
23119;SDS011;11729;50.836;4.330;2023-06-22T09:40:18;31.17;;;21.33;;
23119;SDS011;11729;50.836;4.330;2023-06-22T09:42:43;35.17;;;22.08;;
23119;SDS011;11729;50.836;4.330;2023-06-22T09:45:09;32.25;;;22.58;;
23119;SDS011;11729;50.836;4.330;2023-06-22T09:47:35;44.15;;;25.23;;
23119;SDS011;11729;50.836;4.330;2023-06-22T09:50:00;33.90;;;26.10;;
23119;SDS011;11729;50.836;4.330;2023-06-22T09:52:26;41.08;;;29.05;;
23119;SDS011;11729;50.836;4.330;2023-06-22T09:54:52;38.78;;;26.67;;
23119;SDS011;11729;50.836;4.330;2023-06-22T09:57:17;45.08;;;27.77;;
23119;SDS011;11729;50.836;4.330;2023-06-22T09:59:43;33.58;;;27.48;;
23119;SDS011;11729;50.836;4.330;2023-06-22T10:02:08;39.17;;;26.35;;
23119;SDS011;11729;50.836;4.330;2023-06-22T10:04:34;28.77;;;23.80;;
23119;SDS011;11729;50.836;4.330;2023-06-22T10:07:00;31.40;;;25.48;;
23119;SDS011;11729;50.836;4.330;2023-06-22T10:09:27;33.40;;;25.83;;
23119;SDS011;11729;50.836;4.330;2023-06-22T10:11:52;38.30;;;26.52;;
23119;SDS011;11729;50.836;4.330;2023-06-22T10:14:18;42.67;;;28.95;;
23119;SDS011;11729;50.836;4.330;2023-06-22T10:16:44;40.85;;;30.08;;
23119;SDS011;11729;50.836;4.330;2023-06-22T10:19:09;40.40;;;28.60;;
23119;SDS011;11729;50.836;4.330;2023-06-22T10:21:35;44.90;;;30.63;;
23119;SDS011;11729;50.836;4.330;2023-06-22T10:24:01;38.95;;;29.63;;
23119;SDS011;11729;50.836;4.330;2023-06-22T10:26:33;40.22;;;28.30;;
23119;SDS011;11729;50.836;4.330;2023-06-22T10:29:00;30.88;;;26.98;;
23119;SDS011;11729;50.836;4.330;2023-06-22T10:31:26;35.97;;;27.45;;
23119;SDS011;11729;50.836;4.330;2023-06-22T10:33:53;34.25;;;24.73;;
23119;SDS011;11729;50.836;4.330;2023-06-22T10:36:19;32.90;;;25.38;;
23119;SDS011;11729;50.836;4.330;2023-06-22T10:38:45;32.00;;;25.63;;
23119;SDS011;11729;50.836;4.330;2023-06-22T10:41:12;12.77;;;11.50;;
23119;SDS011;11729;50.836;4.330;2023-06-22T10:43:37;3.65;;;3.50;;
23119;SDS011;11729;50.836;4.330;2023-06-22T10:46:03;4.00;;;3.72;;
23119;SDS011;11729;50.836;4.330;2023-06-22T10:48:29;3.60;;;3.50;;
23119;SDS011;11729;50.836;4.330;2023-06-22T10:50:54;4.85;;;4.55;;
23119;SDS011;11729;50.836;4.330;2023-06-22T10:53:20;3.40;;;3.30;;
23119;SDS011;11729;50.836;4.330;2023-06-22T10:55:46;3.38;;;3.28;;
23119;SDS011;11729;50.836;4.330;2023-06-22T10:58:12;4.40;;;4.20;;
23119;SDS011;11729;50.836;4.330;2023-06-22T11:00:37;3.40;;;3.30;;
23119;SDS011;11729;50.836;4.330;2023-06-22T11:03:03;3.40;;;3.30;;
23119;SDS011;11729;50.836;4.330;2023-06-22T11:05:29;5.45;;;4.95;;
23119;SDS011;11729;50.836;4.330;2023-06-22T11:07:55;4.18;;;3.97;;
23119;SDS011;11729;50.836;4.330;2023-06-22T11:10:20;4.40;;;4.20;;
23119;SDS011;11729;50.836;4.330;2023-06-22T11:12:47;3.78;;;3.65;;
23119;SDS011;11729;50.836;4.330;2023-06-22T11:15:12;3.88;;;3.67;;
23119;SDS011;11729;50.836;4.330;2023-06-22T11:17:38;3.60;;;3.50;;
23119;SDS011;11729;50.836;4.330;2023-06-22T11:20:04;3.92;;;3.72;;
23119;SDS011;11729;50.836;4.330;2023-06-22T11:22:37;4.10;;;3.90;;
23119;SDS011;11729;50.836;4.330;2023-06-22T11:25:04;5.10;;;4.57;;
23119;SDS011;11729;50.836;4.330;2023-06-22T11:27:30;4.00;;;3.80;;
23119;SDS011;11729;50.836;4.330;2023-06-22T11:29:56;4.88;;;4.63;;
23119;SDS011;11729;50.836;4.330;2023-06-22T11:32:22;3.80;;;3.65;;
23119;SDS011;11729;50.836;4.330;2023-06-22T11:34:49;3.80;;;3.65;;
23119;SDS011;11729;50.836;4.330;2023-06-22T11:37:15;3.92;;;3.72;;
23119;SDS011;11729;50.836;4.330;2023-06-22T11:39:41;3.50;;;3.40;;
23119;SDS011;11729;50.836;4.330;2023-06-22T11:42:07;4.38;;;4.18;;
23119;SDS011;11729;50.836;4.330;2023-06-22T11:44:34;4.18;;;3.97;;
23119;SDS011;11729;50.836;4.330;2023-06-22T11:46:59;3.60;;;3.50;;
23119;SDS011;11729;50.836;4.330;2023-06-22T11:49:26;3.40;;;3.30;;
23119;SDS011;11729;50.836;4.330;2023-06-22T11:51:52;3.92;;;3.72;;
23119;SDS011;11729;50.836;4.330;2023-06-22T11:54:18;4.15;;;3.90;;
23119;SDS011;11729;50.836;4.330;2023-06-22T11:56:43;4.63;;;4.28;;
23119;SDS011;11729;50.836;4.330;2023-06-22T11:59:10;3.65;;;3.55;;
23119;SDS011;11729;50.836;4.330;2023-06-22T12:01:35;3.50;;;3.40;;
23119;SDS011;11729;50.836;4.330;2023-06-22T12:04:01;3.90;;;3.70;;
23119;SDS011;11729;50.836;4.330;2023-06-22T12:06:30;5.97;;;5.68;;
23119;SDS011;11729;50.836;4.330;2023-06-22T12:09:03;4.18;;;3.97;;
23119;SDS011;11729;50.836;4.330;2023-06-22T12:11:29;3.88;;;3.70;;
23119;SDS011;11729;50.836;4.330;2023-06-22T12:13:55;4.90;;;4.60;;
23119;SDS011;11729;50.836;4.330;2023-06-22T12:16:21;4.00;;;3.80;;
23119;SDS011;11729;50.836;4.330;2023-06-22T12:18:47;4.60;;;4.30;;
23119;SDS011;11729;50.836;4.330;2023-06-22T12:21:14;5.38;;;5.10;;
23119;SDS011;11729;50.836;4.330;2023-06-22T12:23:40;4.40;;;4.10;;
23119;SDS011;11729;50.836;4.330;2023-06-22T12:26:06;3.45;;;3.35;;
23119;SDS011;11729;50.836;4.330;2023-06-22T12:28:31;3.90;;;3.70;;
23119;SDS011;11729;50.836;4.330;2023-06-22T12:30:57;3.60;;;3.50;;
23119;SDS011;11729;50.836;4.330;2023-06-22T12:33:22;4.03;;;3.83;;
23119;SDS011;11729;50.836;4.330;2023-06-22T12:35:48;3.55;;;3.45;;
23119;SDS011;11729;50.836;4.330;2023-06-22T12:38:14;4.45;;;4.25;;
23119;SDS011;11729;50.836;4.330;2023-06-22T12:40:39;4.97;;;4.55;;
23119;SDS011;11729;50.836;4.330;2023-06-22T12:43:06;4.22;;;4.03;;
23119;SDS011;11729;50.836;4.330;2023-06-22T12:45:32;3.83;;;3.65;;
23119;SDS011;11729;50.836;4.330;2023-06-22T12:48:00;4.75;;;4.55;;
23119;SDS011;11729;50.836;4.330;2023-06-22T12:50:26;4.07;;;3.88;;
23119;SDS011;11729;50.836;4.330;2023-06-22T12:52:51;3.80;;;3.70;;
23119;SDS011;11729;50.836;4.330;2023-06-22T12:55:17;4.10;;;3.90;;
23119;SDS011;11729;50.836;4.330;2023-06-22T12:57:43;4.50;;;4.30;;
23119;SDS011;11729;50.836;4.330;2023-06-22T13:00:08;5.22;;;4.93;;
23119;SDS011;11729;50.836;4.330;2023-06-22T13:02:35;4.95;;;4.47;;
23119;SDS011;11729;50.836;4.330;2023-06-22T13:05:03;5.25;;;4.85;;
23119;SDS011;11729;50.836;4.330;2023-06-22T13:07:30;4.38;;;4.18;;
23119;SDS011;11729;50.836;4.330;2023-06-22T13:09:57;4.13;;;3.92;;
23119;SDS011;11729;50.836;4.330;2023-06-22T13:12:22;3.95;;;3.75;;
23119;SDS011;11729;50.836;4.330;2023-06-22T13:14:48;4.70;;;4.20;;
23119;SDS011;11729;50.836;4.330;2023-06-22T13:17:14;7.32;;;4.53;;
23119;SDS011;11729;50.836;4.330;2023-06-22T13:19:40;3.70;;;3.60;;
23119;SDS011;11729;50.836;4.330;2023-06-22T13:22:09;4.55;;;4.35;;
23119;SDS011;11729;50.836;4.330;2023-06-22T13:24:50;3.88;;;3.70;;
23119;SDS011;11729;50.836;4.330;2023-06-22T13:27:16;4.35;;;4.15;;
23119;SDS011;11729;50.836;4.330;2023-06-22T13:29:41;4.18;;;4.00;;
23119;SDS011;11729;50.836;4.330;2023-06-22T13:32:07;4.43;;;4.22;;
23119;SDS011;11729;50.836;4.330;2023-06-22T13:34:33;8.20;;;5.25;;
23119;SDS011;11729;50.836;4.330;2023-06-22T13:36:58;5.03;;;4.60;;
23119;SDS011;11729;50.836;4.330;2023-06-22T13:39:24;3.72;;;3.63;;
23119;SDS011;11729;50.836;4.330;2023-06-22T13:41:50;3.75;;;3.65;;
23119;SDS011;11729;50.836;4.330;2023-06-22T13:44:15;4.90;;;4.70;;
23119;SDS011;11729;50.836;4.330;2023-06-22T13:46:41;5.10;;;4.80;;
23119;SDS011;11729;50.836;4.330;2023-06-22T13:49:06;4.28;;;4.07;;
23119;SDS011;11729;50.836;4.330;2023-06-22T13:51:32;4.00;;;3.80;;
23119;SDS011;11729;50.836;4.330;2023-06-22T13:53:58;4.05;;;3.85;;
23119;SDS011;11729;50.836;4.330;2023-06-22T13:56:23;4.00;;;3.80;;
23119;SDS011;11729;50.836;4.330;2023-06-22T13:58:49;3.80;;;3.65;;
23119;SDS011;11729;50.836;4.330;2023-06-22T14:01:15;3.50;;;3.40;;
23119;SDS011;11729;50.836;4.330;2023-06-22T14:03:41;5.00;;;4.70;;
23119;SDS011;11729;50.836;4.330;2023-06-22T14:06:06;4.82;;;4.63;;
23119;SDS011;11729;50.836;4.330;2023-06-22T14:08:34;3.90;;;3.70;;
23119;SDS011;11729;50.836;4.330;2023-06-22T14:11:01;3.83;;;3.70;;
23119;SDS011;11729;50.836;4.330;2023-06-22T14:13:26;4.32;;;4.13;;
23119;SDS011;11729;50.836;4.330;2023-06-22T14:15:52;4.45;;;4.25;;
23119;SDS011;11729;50.836;4.330;2023-06-22T14:18:19;3.70;;;3.60;;
23119;SDS011;11729;50.836;4.330;2023-06-22T14:20:44;4.35;;;4.15;;
23119;SDS011;11729;50.836;4.330;2023-06-22T14:23:12;4.47;;;4.28;;
23119;SDS011;11729;50.836;4.330;2023-06-22T14:25:38;3.95;;;3.75;;
23119;SDS011;11729;50.836;4.330;2023-06-22T14:28:06;4.25;;;4.05;;
23119;SDS011;11729;50.836;4.330;2023-06-22T14:30:31;3.97;;;3.78;;
23119;SDS011;11729;50.836;4.330;2023-06-22T14:32:57;4.35;;;4.15;;
23119;SDS011;11729;50.836;4.330;2023-06-22T14:35:23;4.75;;;4.50;;
23119;SDS011;11729;50.836;4.330;2023-06-22T14:37:49;4.13;;;3.92;;
23119;SDS011;11729;50.836;4.330;2023-06-22T14:40:15;3.72;;;3.60;;
23119;SDS011;11729;50.836;4.330;2023-06-22T14:42:41;4.57;;;4.32;;